sensor_id;sensor_type;location;lat;lon;timestamp;temperature;humidity
3709;DHT22;1870;53.996;10.784;2023-05-31T00:02:13;13.20;99.90
3709;DHT22;1870;53.996;10.784;2023-05-31T00:04:39;13.10;99.90
3709;DHT22;1870;53.996;10.784;2023-05-31T00:07:05;13.10;99.90
3709;DHT22;1870;53.996;10.784;2023-05-31T00:09:32;13.10;99.90
3709;DHT22;1870;53.996;10.784;2023-05-31T00:11:57;13.00;99.90
3709;DHT22;1870;53.996;10.784;2023-05-31T00:14:23;13.00;99.90
3709;DHT22;1870;53.996;10.784;2023-05-31T00:16:49;13.00;99.90
3709;DHT22;1870;53.996;10.784;2023-05-31T00:19:15;12.80;99.90
3709;DHT22;1870;53.996;10.784;2023-05-31T00:21:40;12.70;99.90
3709;DHT22;1870;53.996;10.784;2023-05-31T00:24:06;12.70;99.90
3709;DHT22;1870;53.996;10.784;2023-05-31T00:26:32;12.70;99.90
3709;DHT22;1870;53.996;10.784;2023-05-31T00:28:57;12.70;99.90
3709;DHT22;1870;53.996;10.784;2023-05-31T00:31:23;12.70;99.90
3709;DHT22;1870;53.996;10.784;2023-05-31T00:33:49;12.60;99.90
3709;DHT22;1870;53.996;10.784;2023-05-31T00:36:15;12.50;99.90
3709;DHT22;1870;53.996;10.784;2023-05-31T00:38:40;12.50;99.90
3709;DHT22;1870;53.996;10.784;2023-05-31T00:41:08;12.50;99.90
3709;DHT22;1870;53.996;10.784;2023-05-31T00:43:34;12.40;99.90
3709;DHT22;1870;53.996;10.784;2023-05-31T00:46:00;12.40;99.90
3709;DHT22;1870;53.996;10.784;2023-05-31T00:48:25;12.30;99.90
3709;DHT22;1870;53.996;10.784;2023-05-31T00:50:51;12.30;99.90
3709;DHT22;1870;53.996;10.784;2023-05-31T00:53:18;12.10;99.90
3709;DHT22;1870;53.996;10.784;2023-05-31T00:55:44;12.10;99.90
3709;DHT22;1870;53.996;10.784;2023-05-31T00:58:10;12.10;99.90
3709;DHT22;1870;53.996;10.784;2023-05-31T01:00:37;12.00;99.90
3709;DHT22;1870;53.996;10.784;2023-05-31T01:03:02;12.00;99.90
3709;DHT22;1870;53.996;10.784;2023-05-31T01:05:29;11.90;99.90
3709;DHT22;1870;53.996;10.784;2023-05-31T01:07:54;11.90;99.90
3709;DHT22;1870;53.996;10.784;2023-05-31T01:10:20;11.90;99.90
3709;DHT22;1870;53.996;10.784;2023-05-31T01:13:58;11.80;99.90
3709;DHT22;1870;53.996;10.784;2023-05-31T01:16:06;11.80;99.90
3709;DHT22;1870;53.996;10.784;2023-05-31T01:18:51;11.70;99.90
3709;DHT22;1870;53.996;10.784;2023-05-31T01:21:25;11.80;99.90
3709;DHT22;1870;53.996;10.784;2023-05-31T01:26:43;11.70;99.90
3709;DHT22;1870;53.996;10.784;2023-05-31T01:29:13;11.70;99.90
3709;DHT22;1870;53.996;10.784;2023-05-31T01:31:40;11.70;99.90
3709;DHT22;1870;53.996;10.784;2023-05-31T01:34:07;11.70;99.90
3709;DHT22;1870;53.996;10.784;2023-05-31T01:36:33;11.60;99.90
3709;DHT22;1870;53.996;10.784;2023-05-31T01:39:01;11.70;99.90
3709;DHT22;1870;53.996;10.784;2023-05-31T01:41:28;11.70;99.90
3709;DHT22;1870;53.996;10.784;2023-05-31T01:43:56;11.60;99.90
3709;DHT22;1870;53.996;10.784;2023-05-31T01:46:23;11.60;99.90
3709;DHT22;1870;53.996;10.784;2023-05-31T01:48:49;11.60;99.90
3709;DHT22;1870;53.996;10.784;2023-05-31T01:51:16;11.60;99.90
3709;DHT22;1870;53.996;10.784;2023-05-31T01:53:42;11.60;99.90
3709;DHT22;1870;53.996;10.784;2023-05-31T01:56:08;11.60;99.90
3709;DHT22;1870;53.996;10.784;2023-05-31T01:58:39;11.50;99.90
3709;DHT22;1870;53.996;10.784;2023-05-31T02:01:11;11.40;99.90
3709;DHT22;1870;53.996;10.784;2023-05-31T02:03:38;11.40;99.90
3709;DHT22;1870;53.996;10.784;2023-05-31T02:06:05;11.40;99.90
3709;DHT22;1870;53.996;10.784;2023-05-31T02:08:30;11.40;99.90
3709;DHT22;1870;53.996;10.784;2023-05-31T02:10:56;11.30;99.90
3709;DHT22;1870;53.996;10.784;2023-05-31T02:13:27;11.30;99.90
3709;DHT22;1870;53.996;10.784;2023-05-31T02:15:56;11.30;99.90
3709;DHT22;1870;53.996;10.784;2023-05-31T02:18:23;11.20;99.90
3709;DHT22;1870;53.996;10.784;2023-05-31T02:20:48;11.20;99.90
3709;DHT22;1870;53.996;10.784;2023-05-31T02:23:14;11.20;99.90
3709;DHT22;1870;53.996;10.784;2023-05-31T02:25:40;11.20;99.90
3709;DHT22;1870;53.996;10.784;2023-05-31T02:28:06;11.20;99.90
3709;DHT22;1870;53.996;10.784;2023-05-31T02:30:32;11.30;99.90
3709;DHT22;1870;53.996;10.784;2023-05-31T02:32:58;11.20;99.90
3709;DHT22;1870;53.996;10.784;2023-05-31T02:35:25;11.20;99.90
3709;DHT22;1870;53.996;10.784;2023-05-31T02:37:51;11.00;99.90
3709;DHT22;1870;53.996;10.784;2023-05-31T02:40:16;11.00;99.90
3709;DHT22;1870;53.996;10.784;2023-05-31T02:42:43;11.00;99.90
3709;DHT22;1870;53.996;10.784;2023-05-31T02:45:09;11.00;99.90
3709;DHT22;1870;53.996;10.784;2023-05-31T02:47:39;11.00;99.90
3709;DHT22;1870;53.996;10.784;2023-05-31T02:50:06;11.00;99.90
3709;DHT22;1870;53.996;10.784;2023-05-31T02:52:34;10.90;99.90
3709;DHT22;1870;53.996;10.784;2023-05-31T02:55:00;10.90;99.90
3709;DHT22;1870;53.996;10.784;2023-05-31T02:57:26;10.90;99.90
3709;DHT22;1870;53.996;10.784;2023-05-31T02:59:56;10.80;99.90
3709;DHT22;1870;53.996;10.784;2023-05-31T03:02:22;10.80;99.90
3709;DHT22;1870;53.996;10.784;2023-05-31T03:04:48;10.70;99.90
3709;DHT22;1870;53.996;10.784;2023-05-31T03:07:14;10.80;99.90
3709;DHT22;1870;53.996;10.784;2023-05-31T03:09:39;10.70;99.90
3709;DHT22;1870;53.996;10.784;2023-05-31T03:12:05;10.70;99.90
3709;DHT22;1870;53.996;10.784;2023-05-31T03:14:31;10.70;99.90
3709;DHT22;1870;53.996;10.784;2023-05-31T03:16:57;10.70;99.90
3709;DHT22;1870;53.996;10.784;2023-05-31T03:19:23;10.70;99.90
3709;DHT22;1870;53.996;10.784;2023-05-31T03:21:49;10.70;99.90
3709;DHT22;1870;53.996;10.784;2023-05-31T03:24:14;10.70;99.90
3709;DHT22;1870;53.996;10.784;2023-05-31T03:26:40;10.70;99.90
3709;DHT22;1870;53.996;10.784;2023-05-31T03:29:05;10.80;99.90
3709;DHT22;1870;53.996;10.784;2023-05-31T03:31:31;10.70;99.90
3709;DHT22;1870;53.996;10.784;2023-05-31T03:33:58;10.70;99.90
3709;DHT22;1870;53.996;10.784;2023-05-31T03:36:24;10.80;99.90
3709;DHT22;1870;53.996;10.784;2023-05-31T03:38:50;10.80;99.90
3709;DHT22;1870;53.996;10.784;2023-05-31T03:41:16;10.80;99.90
3709;DHT22;1870;53.996;10.784;2023-05-31T03:43:42;10.80;99.90
3709;DHT22;1870;53.996;10.784;2023-05-31T03:46:07;10.80;99.90
3709;DHT22;1870;53.996;10.784;2023-05-31T03:48:33;10.80;99.90
3709;DHT22;1870;53.996;10.784;2023-05-31T03:50:59;10.80;99.90
3709;DHT22;1870;53.996;10.784;2023-05-31T03:53:24;10.80;99.90
3709;DHT22;1870;53.996;10.784;2023-05-31T03:55:51;10.80;99.90
3709;DHT22;1870;53.996;10.784;2023-05-31T03:58:17;10.80;99.90
3709;DHT22;1870;53.996;10.784;2023-05-31T04:00:43;10.90;99.90
3709;DHT22;1870;53.996;10.784;2023-05-31T04:03:09;10.90;99.90
3709;DHT22;1870;53.996;10.784;2023-05-31T04:05:38;10.90;99.90
3709;DHT22;1870;53.996;10.784;2023-05-31T04:08:03;10.90;99.90
3709;DHT22;1870;53.996;10.784;2023-05-31T04:10:30;11.00;99.90
3709;DHT22;1870;53.996;10.784;2023-05-31T04:12:56;11.00;99.90
3709;DHT22;1870;53.996;10.784;2023-05-31T04:15:21;11.00;99.90
3709;DHT22;1870;53.996;10.784;2023-05-31T04:17:47;11.10;99.90
3709;DHT22;1870;53.996;10.784;2023-05-31T04:20:13;11.10;99.90
3709;DHT22;1870;53.996;10.784;2023-05-31T04:22:38;11.20;99.90
3709;DHT22;1870;53.996;10.784;2023-05-31T04:25:04;11.30;99.90
3709;DHT22;1870;53.996;10.784;2023-05-31T04:27:30;11.40;99.90
3709;DHT22;1870;53.996;10.784;2023-05-31T04:29:58;11.50;99.90
3709;DHT22;1870;53.996;10.784;2023-05-31T04:32:26;11.50;99.90
3709;DHT22;1870;53.996;10.784;2023-05-31T04:34:53;11.60;99.90
3709;DHT22;1870;53.996;10.784;2023-05-31T04:37:24;11.70;99.90
3709;DHT22;1870;53.996;10.784;2023-05-31T04:39:52;11.80;99.90
3709;DHT22;1870;53.996;10.784;2023-05-31T04:42:18;11.90;99.90
3709;DHT22;1870;53.996;10.784;2023-05-31T04:44:44;12.00;99.90
3709;DHT22;1870;53.996;10.784;2023-05-31T04:47:10;12.10;99.90
3709;DHT22;1870;53.996;10.784;2023-05-31T04:49:36;12.10;99.90
3709;DHT22;1870;53.996;10.784;2023-05-31T04:52:02;12.20;99.90
3709;DHT22;1870;53.996;10.784;2023-05-31T04:54:28;12.30;99.90
3709;DHT22;1870;53.996;10.784;2023-05-31T04:56:54;12.40;99.90
3709;DHT22;1870;53.996;10.784;2023-05-31T04:59:20;12.50;99.90
3709;DHT22;1870;53.996;10.784;2023-05-31T05:01:46;12.60;99.90
3709;DHT22;1870;53.996;10.784;2023-05-31T05:04:12;12.70;99.90
3709;DHT22;1870;53.996;10.784;2023-05-31T05:06:37;12.70;99.90
3709;DHT22;1870;53.996;10.784;2023-05-31T05:09:05;12.80;99.90
3709;DHT22;1870;53.996;10.784;2023-05-31T05:11:31;12.80;99.90
3709;DHT22;1870;53.996;10.784;2023-05-31T05:13:57;12.90;99.90
3709;DHT22;1870;53.996;10.784;2023-05-31T05:16:22;13.00;99.90
3709;DHT22;1870;53.996;10.784;2023-05-31T05:18:48;13.10;99.90
3709;DHT22;1870;53.996;10.784;2023-05-31T05:21:14;13.10;99.90
3709;DHT22;1870;53.996;10.784;2023-05-31T05:23:40;13.20;99.90
3709;DHT22;1870;53.996;10.784;2023-05-31T05:26:06;13.40;99.90
3709;DHT22;1870;53.996;10.784;2023-05-31T05:28:32;13.50;99.90
3709;DHT22;1870;53.996;10.784;2023-05-31T05:30:57;13.70;99.90
3709;DHT22;1870;53.996;10.784;2023-05-31T05:33:23;13.80;99.90
3709;DHT22;1870;53.996;10.784;2023-05-31T05:35:49;13.90;99.90
3709;DHT22;1870;53.996;10.784;2023-05-31T05:38:14;14.00;99.90
3709;DHT22;1870;53.996;10.784;2023-05-31T05:40:40;14.20;99.90
3709;DHT22;1870;53.996;10.784;2023-05-31T05:43:07;14.20;99.90
3709;DHT22;1870;53.996;10.784;2023-05-31T05:45:32;14.30;99.90
3709;DHT22;1870;53.996;10.784;2023-05-31T05:47:58;14.50;99.90
3709;DHT22;1870;53.996;10.784;2023-05-31T05:50:24;14.60;99.90
3709;DHT22;1870;53.996;10.784;2023-05-31T05:52:49;14.70;99.90
3709;DHT22;1870;53.996;10.784;2023-05-31T05:55:15;14.80;99.90
3709;DHT22;1870;53.996;10.784;2023-05-31T05:57:41;15.00;99.90
3709;DHT22;1870;53.996;10.784;2023-05-31T06:00:07;15.10;99.90
3709;DHT22;1870;53.996;10.784;2023-05-31T06:02:37;15.20;99.90
3709;DHT22;1870;53.996;10.784;2023-05-31T06:05:03;15.30;99.90
3709;DHT22;1870;53.996;10.784;2023-05-31T06:07:30;15.40;99.90
3709;DHT22;1870;53.996;10.784;2023-05-31T06:09:56;15.40;99.90
3709;DHT22;1870;53.996;10.784;2023-05-31T06:12:22;15.40;99.90
3709;DHT22;1870;53.996;10.784;2023-05-31T06:14:47;15.60;99.90
3709;DHT22;1870;53.996;10.784;2023-05-31T06:17:14;15.60;99.90
3709;DHT22;1870;53.996;10.784;2023-05-31T06:19:39;15.60;99.90
3709;DHT22;1870;53.996;10.784;2023-05-31T06:22:06;15.60;99.90
3709;DHT22;1870;53.996;10.784;2023-05-31T06:24:32;15.90;99.90
3709;DHT22;1870;53.996;10.784;2023-05-31T06:26:58;16.00;99.90
3709;DHT22;1870;53.996;10.784;2023-05-31T06:29:24;16.00;99.90
3709;DHT22;1870;53.996;10.784;2023-05-31T06:31:50;16.10;99.90
3709;DHT22;1870;53.996;10.784;2023-05-31T06:34:15;16.30;99.90
3709;DHT22;1870;53.996;10.784;2023-05-31T06:36:41;16.40;99.90
3709;DHT22;1870;53.996;10.784;2023-05-31T06:39:07;16.50;99.90
3709;DHT22;1870;53.996;10.784;2023-05-31T06:41:33;16.60;99.90
3709;DHT22;1870;53.996;10.784;2023-05-31T06:44:00;16.70;99.90
3709;DHT22;1870;53.996;10.784;2023-05-31T06:46:27;16.80;99.90
3709;DHT22;1870;53.996;10.784;2023-05-31T06:48:53;16.70;99.90
3709;DHT22;1870;53.996;10.784;2023-05-31T06:51:19;16.80;99.90
3709;DHT22;1870;53.996;10.784;2023-05-31T06:53:46;16.90;99.90
3709;DHT22;1870;53.996;10.784;2023-05-31T06:56:11;17.00;99.90
3709;DHT22;1870;53.996;10.784;2023-05-31T06:58:37;17.10;99.90
3709;DHT22;1870;53.996;10.784;2023-05-31T07:01:03;17.10;99.90
3709;DHT22;1870;53.996;10.784;2023-05-31T07:03:28;17.10;99.90
3709;DHT22;1870;53.996;10.784;2023-05-31T07:05:54;17.00;99.90
3709;DHT22;1870;53.996;10.784;2023-05-31T07:08:20;16.90;99.90
3709;DHT22;1870;53.996;10.784;2023-05-31T07:10:45;17.00;99.90
3709;DHT22;1870;53.996;10.784;2023-05-31T07:13:11;17.30;99.90
3709;DHT22;1870;53.996;10.784;2023-05-31T07:15:37;17.40;99.90
3709;DHT22;1870;53.996;10.784;2023-05-31T07:18:03;17.40;99.90
3709;DHT22;1870;53.996;10.784;2023-05-31T07:20:28;17.50;99.90
3709;DHT22;1870;53.996;10.784;2023-05-31T07:22:54;17.60;99.90
3709;DHT22;1870;53.996;10.784;2023-05-31T07:25:20;17.70;99.90
3709;DHT22;1870;53.996;10.784;2023-05-31T07:27:45;17.90;99.90
3709;DHT22;1870;53.996;10.784;2023-05-31T07:30:11;18.10;99.90
3709;DHT22;1870;53.996;10.784;2023-05-31T07:32:37;18.20;99.90
3709;DHT22;1870;53.996;10.784;2023-05-31T07:35:05;18.30;99.90
3709;DHT22;1870;53.996;10.784;2023-05-31T07:37:32;18.20;99.90
3709;DHT22;1870;53.996;10.784;2023-05-31T07:39:58;18.30;99.90
3709;DHT22;1870;53.996;10.784;2023-05-31T07:42:23;18.20;99.90
3709;DHT22;1870;53.996;10.784;2023-05-31T07:44:49;18.20;99.90
3709;DHT22;1870;53.996;10.784;2023-05-31T07:47:15;18.20;99.90
3709;DHT22;1870;53.996;10.784;2023-05-31T07:49:41;18.20;99.90
3709;DHT22;1870;53.996;10.784;2023-05-31T07:52:07;18.00;99.90
3709;DHT22;1870;53.996;10.784;2023-05-31T07:54:33;18.10;99.90
3709;DHT22;1870;53.996;10.784;2023-05-31T07:56:58;18.20;99.90
3709;DHT22;1870;53.996;10.784;2023-05-31T07:59:24;18.30;99.90
3709;DHT22;1870;53.996;10.784;2023-05-31T08:01:50;18.40;99.90
3709;DHT22;1870;53.996;10.784;2023-05-31T08:04:15;18.40;99.90
3709;DHT22;1870;53.996;10.784;2023-05-31T08:06:41;18.40;99.90
3709;DHT22;1870;53.996;10.784;2023-05-31T08:09:08;18.50;99.90
3709;DHT22;1870;53.996;10.784;2023-05-31T08:11:34;18.50;99.90
3709;DHT22;1870;53.996;10.784;2023-05-31T08:14:04;18.60;99.90
3709;DHT22;1870;53.996;10.784;2023-05-31T08:16:31;18.60;99.90
3709;DHT22;1870;53.996;10.784;2023-05-31T08:18:57;18.60;99.90
3709;DHT22;1870;53.996;10.784;2023-05-31T08:21:23;18.50;99.90
3709;DHT22;1870;53.996;10.784;2023-05-31T08:23:48;18.60;99.90
3709;DHT22;1870;53.996;10.784;2023-05-31T08:26:14;18.80;99.90
3709;DHT22;1870;53.996;10.784;2023-05-31T08:28:40;18.80;99.90
3709;DHT22;1870;53.996;10.784;2023-05-31T08:31:06;18.80;99.90
3709;DHT22;1870;53.996;10.784;2023-05-31T08:33:33;19.00;99.90
3709;DHT22;1870;53.996;10.784;2023-05-31T08:35:59;18.90;99.90
3709;DHT22;1870;53.996;10.784;2023-05-31T08:38:28;19.10;99.90
3709;DHT22;1870;53.996;10.784;2023-05-31T08:40:59;18.90;99.90
3709;DHT22;1870;53.996;10.784;2023-05-31T08:43:26;18.90;99.90
3709;DHT22;1870;53.996;10.784;2023-05-31T08:45:54;19.00;99.90
3709;DHT22;1870;53.996;10.784;2023-05-31T08:48:26;19.20;99.90
3709;DHT22;1870;53.996;10.784;2023-05-31T08:50:52;19.20;99.90
3709;DHT22;1870;53.996;10.784;2023-05-31T08:53:19;19.40;99.90
3709;DHT22;1870;53.996;10.784;2023-05-31T08:55:46;19.50;99.90
3709;DHT22;1870;53.996;10.784;2023-05-31T08:58:13;19.70;99.90
3709;DHT22;1870;53.996;10.784;2023-05-31T09:00:39;19.80;99.90
3709;DHT22;1870;53.996;10.784;2023-05-31T09:03:06;19.70;99.90
3709;DHT22;1870;53.996;10.784;2023-05-31T09:05:32;19.70;99.90
3709;DHT22;1870;53.996;10.784;2023-05-31T09:08:01;19.80;99.90
3709;DHT22;1870;53.996;10.784;2023-05-31T09:10:28;19.90;99.90
3709;DHT22;1870;53.996;10.784;2023-05-31T09:12:54;19.70;99.90
3709;DHT22;1870;53.996;10.784;2023-05-31T09:15:23;19.90;99.90
3709;DHT22;1870;53.996;10.784;2023-05-31T09:17:49;19.90;99.90
3709;DHT22;1870;53.996;10.784;2023-05-31T09:20:16;20.00;99.90
3709;DHT22;1870;53.996;10.784;2023-05-31T09:22:42;20.00;99.90
3709;DHT22;1870;53.996;10.784;2023-05-31T09:25:08;19.90;99.90
3709;DHT22;1870;53.996;10.784;2023-05-31T09:27:38;19.90;99.90
3709;DHT22;1870;53.996;10.784;2023-05-31T09:30:06;20.00;99.90
3709;DHT22;1870;53.996;10.784;2023-05-31T09:32:34;20.00;99.90
3709;DHT22;1870;53.996;10.784;2023-05-31T09:35:15;20.00;99.90
3709;DHT22;1870;53.996;10.784;2023-05-31T09:37:45;20.00;99.90
3709;DHT22;1870;53.996;10.784;2023-05-31T09:40:25;20.10;99.90
3709;DHT22;1870;53.996;10.784;2023-05-31T09:42:54;20.20;99.90
3709;DHT22;1870;53.996;10.784;2023-05-31T09:45:20;20.10;99.90
3709;DHT22;1870;53.996;10.784;2023-05-31T09:47:47;20.10;99.90
3709;DHT22;1870;53.996;10.784;2023-05-31T09:50:19;20.10;99.90
3709;DHT22;1870;53.996;10.784;2023-05-31T09:52:46;20.20;99.90
3709;DHT22;1870;53.996;10.784;2023-05-31T09:55:16;20.30;99.90
3709;DHT22;1870;53.996;10.784;2023-05-31T09:57:44;20.40;99.90
3709;DHT22;1870;53.996;10.784;2023-05-31T10:00:15;20.30;99.90
3709;DHT22;1870;53.996;10.784;2023-05-31T10:02:52;20.30;99.90
3709;DHT22;1870;53.996;10.784;2023-05-31T10:05:19;20.20;99.90
3709;DHT22;1870;53.996;10.784;2023-05-31T10:07:47;20.40;99.90
3709;DHT22;1870;53.996;10.784;2023-05-31T10:10:13;20.50;99.90
3709;DHT22;1870;53.996;10.784;2023-05-31T10:12:54;20.50;99.90
3709;DHT22;1870;53.996;10.784;2023-05-31T10:15:22;20.50;99.90
3709;DHT22;1870;53.996;10.784;2023-05-31T10:18:02;20.50;99.90
3709;DHT22;1870;53.996;10.784;2023-05-31T10:20:52;20.50;99.90
3709;DHT22;1870;53.996;10.784;2023-05-31T10:23:23;20.50;99.90
3709;DHT22;1870;53.996;10.784;2023-05-31T10:26:16;20.50;99.90
3709;DHT22;1870;53.996;10.784;2023-05-31T10:31:50;20.70;99.90
3709;DHT22;1870;53.996;10.784;2023-05-31T10:34:24;20.80;99.90
3709;DHT22;1870;53.996;10.784;2023-05-31T10:36:51;20.90;99.90
3709;DHT22;1870;53.996;10.784;2023-05-31T10:40:00;21.00;99.90
3709;DHT22;1870;53.996;10.784;2023-05-31T10:45:36;21.20;99.90
3709;DHT22;1870;53.996;10.784;2023-05-31T10:50:55;21.40;99.90
3709;DHT22;1870;53.996;10.784;2023-05-31T10:53:21;21.40;99.90
3709;DHT22;1870;53.996;10.784;2023-05-31T10:55:47;21.40;99.90
3709;DHT22;1870;53.996;10.784;2023-05-31T10:58:36;21.40;99.90
3709;DHT22;1870;53.996;10.784;2023-05-31T11:01:07;21.60;99.90
3709;DHT22;1870;53.996;10.784;2023-05-31T11:03:44;21.50;99.90
3709;DHT22;1870;53.996;10.784;2023-05-31T11:06:13;21.60;99.90
3709;DHT22;1870;53.996;10.784;2023-05-31T11:08:39;21.80;99.90
3709;DHT22;1870;53.996;10.784;2023-05-31T11:11:41;21.90;99.90
3709;DHT22;1870;53.996;10.784;2023-05-31T11:14:26;21.90;99.90
3709;DHT22;1870;53.996;10.784;2023-05-31T11:19:36;22.00;99.90
3709;DHT22;1870;53.996;10.784;2023-05-31T11:27:14;22.30;99.90
3709;DHT22;1870;53.996;10.784;2023-05-31T11:32:22;22.40;99.90
3709;DHT22;1870;53.996;10.784;2023-05-31T11:35:14;22.40;99.90
3709;DHT22;1870;53.996;10.784;2023-05-31T11:37:40;22.50;99.90
3709;DHT22;1870;53.996;10.784;2023-05-31T11:40:09;22.50;99.90
3709;DHT22;1870;53.996;10.784;2023-05-31T11:42:38;22.60;99.90
3709;DHT22;1870;53.996;10.784;2023-05-31T11:45:06;22.70;99.90
3709;DHT22;1870;53.996;10.784;2023-05-31T11:47:44;22.80;99.90
3709;DHT22;1870;53.996;10.784;2023-05-31T11:50:14;22.70;99.90
3709;DHT22;1870;53.996;10.784;2023-05-31T11:52:43;22.70;99.90
3709;DHT22;1870;53.996;10.784;2023-05-31T11:55:09;22.70;99.90
3709;DHT22;1870;53.996;10.784;2023-05-31T11:57:43;22.50;99.90
3709;DHT22;1870;53.996;10.784;2023-05-31T12:00:17;22.50;99.90
3709;DHT22;1870;53.996;10.784;2023-05-31T12:02:51;22.60;99.90
3709;DHT22;1870;53.996;10.784;2023-05-31T12:05:18;22.60;99.90
3709;DHT22;1870;53.996;10.784;2023-05-31T12:07:45;22.50;99.90
3709;DHT22;1870;53.996;10.784;2023-05-31T12:10:12;22.50;99.90
3709;DHT22;1870;53.996;10.784;2023-05-31T12:12:41;22.70;99.90
3709;DHT22;1870;53.996;10.784;2023-05-31T12:15:07;22.80;99.90
3709;DHT22;1870;53.996;10.784;2023-05-31T12:17:37;23.00;99.90
3709;DHT22;1870;53.996;10.784;2023-05-31T12:20:03;23.00;99.90
3709;DHT22;1870;53.996;10.784;2023-05-31T12:22:30;23.00;99.90
3709;DHT22;1870;53.996;10.784;2023-05-31T12:24:56;23.00;99.90
3709;DHT22;1870;53.996;10.784;2023-05-31T12:27:23;23.10;99.90
3709;DHT22;1870;53.996;10.784;2023-05-31T12:29:49;23.10;99.90
3709;DHT22;1870;53.996;10.784;2023-05-31T12:32:21;23.20;99.90
3709;DHT22;1870;53.996;10.784;2023-05-31T12:34:47;23.30;99.90
3709;DHT22;1870;53.996;10.784;2023-05-31T12:37:15;23.50;99.90
3709;DHT22;1870;53.996;10.784;2023-05-31T12:39:41;23.40;99.90
3709;DHT22;1870;53.996;10.784;2023-05-31T12:42:06;23.50;99.90
3709;DHT22;1870;53.996;10.784;2023-05-31T12:44:33;23.40;99.90
3709;DHT22;1870;53.996;10.784;2023-05-31T12:47:01;23.40;99.90
3709;DHT22;1870;53.996;10.784;2023-05-31T12:49:29;23.50;99.90
3709;DHT22;1870;53.996;10.784;2023-05-31T12:54:28;23.30;99.90
3709;DHT22;1870;53.996;10.784;2023-05-31T12:56:56;23.40;99.90
3709;DHT22;1870;53.996;10.784;2023-05-31T12:59:21;23.50;99.90
3709;DHT22;1870;53.996;10.784;2023-05-31T13:01:47;23.60;99.90
3709;DHT22;1870;53.996;10.784;2023-05-31T13:04:13;23.70;99.90
3709;DHT22;1870;53.996;10.784;2023-05-31T13:06:40;23.70;99.90
3709;DHT22;1870;53.996;10.784;2023-05-31T13:09:07;23.80;99.90
3709;DHT22;1870;53.996;10.784;2023-05-31T13:11:34;23.90;99.90
3709;DHT22;1870;53.996;10.784;2023-05-31T13:14:01;24.10;99.90
3709;DHT22;1870;53.996;10.784;2023-05-31T13:16:27;24.10;99.90
3709;DHT22;1870;53.996;10.784;2023-05-31T13:18:52;24.30;99.90
3709;DHT22;1870;53.996;10.784;2023-05-31T13:21:18;24.20;99.90
3709;DHT22;1870;53.996;10.784;2023-05-31T13:23:43;24.20;99.90
3709;DHT22;1870;53.996;10.784;2023-05-31T13:26:09;24.30;99.90
3709;DHT22;1870;53.996;10.784;2023-05-31T13:28:35;24.30;99.90
3709;DHT22;1870;53.996;10.784;2023-05-31T13:31:01;24.40;99.90
3709;DHT22;1870;53.996;10.784;2023-05-31T13:33:27;24.50;99.90
3709;DHT22;1870;53.996;10.784;2023-05-31T13:35:54;24.60;99.90
3709;DHT22;1870;53.996;10.784;2023-05-31T13:38:23;24.60;99.90
3709;DHT22;1870;53.996;10.784;2023-05-31T13:40:49;24.60;99.90
3709;DHT22;1870;53.996;10.784;2023-05-31T13:43:18;24.60;99.90
3709;DHT22;1870;53.996;10.784;2023-05-31T13:45:45;24.50;99.90
3709;DHT22;1870;53.996;10.784;2023-05-31T13:48:11;24.50;99.90
3709;DHT22;1870;53.996;10.784;2023-05-31T13:50:39;24.50;99.90
3709;DHT22;1870;53.996;10.784;2023-05-31T13:53:05;24.60;99.90
3709;DHT22;1870;53.996;10.784;2023-05-31T13:55:31;24.70;99.90
3709;DHT22;1870;53.996;10.784;2023-05-31T13:57:57;24.70;99.90
3709;DHT22;1870;53.996;10.784;2023-05-31T14:00:23;24.70;99.90
3709;DHT22;1870;53.996;10.784;2023-05-31T14:02:49;24.90;99.90
3709;DHT22;1870;53.996;10.784;2023-05-31T14:05:15;24.90;99.90
3709;DHT22;1870;53.996;10.784;2023-05-31T14:07:41;24.90;99.90
3709;DHT22;1870;53.996;10.784;2023-05-31T14:10:07;25.10;99.90
3709;DHT22;1870;53.996;10.784;2023-05-31T14:12:33;25.10;99.90
3709;DHT22;1870;53.996;10.784;2023-05-31T14:14:58;25.10;99.90
3709;DHT22;1870;53.996;10.784;2023-05-31T14:17:24;24.90;99.90
3709;DHT22;1870;53.996;10.784;2023-05-31T14:19:50;24.90;99.90
3709;DHT22;1870;53.996;10.784;2023-05-31T14:22:15;24.90;99.90
3709;DHT22;1870;53.996;10.784;2023-05-31T14:24:41;24.70;99.90
3709;DHT22;1870;53.996;10.784;2023-05-31T14:27:06;24.80;99.90
3709;DHT22;1870;53.996;10.784;2023-05-31T14:29:32;25.00;99.90
3709;DHT22;1870;53.996;10.784;2023-05-31T14:31:58;25.10;99.90
3709;DHT22;1870;53.996;10.784;2023-05-31T14:34:23;25.10;99.90
3709;DHT22;1870;53.996;10.784;2023-05-31T14:36:51;25.20;99.90
3709;DHT22;1870;53.996;10.784;2023-05-31T14:39:17;25.30;99.90
3709;DHT22;1870;53.996;10.784;2023-05-31T14:41:42;25.50;99.90
3709;DHT22;1870;53.996;10.784;2023-05-31T14:44:08;25.40;99.90
3709;DHT22;1870;53.996;10.784;2023-05-31T14:46:34;25.10;99.90
3709;DHT22;1870;53.996;10.784;2023-05-31T14:49:00;25.20;99.90
3709;DHT22;1870;53.996;10.784;2023-05-31T14:51:25;25.30;99.90
3709;DHT22;1870;53.996;10.784;2023-05-31T14:53:53;25.20;99.90
3709;DHT22;1870;53.996;10.784;2023-05-31T14:56:19;25.10;99.90
3709;DHT22;1870;53.996;10.784;2023-05-31T14:58:45;25.20;99.90
3709;DHT22;1870;53.996;10.784;2023-05-31T15:01:12;25.50;99.90
3709;DHT22;1870;53.996;10.784;2023-05-31T15:03:37;25.80;99.90
3709;DHT22;1870;53.996;10.784;2023-05-31T15:06:03;26.00;99.90
3709;DHT22;1870;53.996;10.784;2023-05-31T15:08:29;26.20;99.90
3709;DHT22;1870;53.996;10.784;2023-05-31T15:10:55;26.50;99.90
3709;DHT22;1870;53.996;10.784;2023-05-31T15:13:21;26.60;99.90
3709;DHT22;1870;53.996;10.784;2023-05-31T15:15:46;26.60;99.90
3709;DHT22;1870;53.996;10.784;2023-05-31T15:18:12;26.80;99.90
3709;DHT22;1870;53.996;10.784;2023-05-31T15:20:39;26.90;99.90
3709;DHT22;1870;53.996;10.784;2023-05-31T15:23:04;26.60;99.90
3709;DHT22;1870;53.996;10.784;2023-05-31T15:25:30;26.70;99.90
3709;DHT22;1870;53.996;10.784;2023-05-31T15:27:56;26.40;99.90
3709;DHT22;1870;53.996;10.784;2023-05-31T15:30:22;26.40;99.90
3709;DHT22;1870;53.996;10.784;2023-05-31T15:32:47;26.60;99.90
3709;DHT22;1870;53.996;10.784;2023-05-31T15:35:13;26.70;99.90
3709;DHT22;1870;53.996;10.784;2023-05-31T15:37:39;27.00;99.90
3709;DHT22;1870;53.996;10.784;2023-05-31T15:40:05;27.10;99.90
3709;DHT22;1870;53.996;10.784;2023-05-31T15:42:31;26.90;99.90
3709;DHT22;1870;53.996;10.784;2023-05-31T15:44:57;26.80;99.90
3709;DHT22;1870;53.996;10.784;2023-05-31T15:47:23;27.20;99.90
3709;DHT22;1870;53.996;10.784;2023-05-31T15:49:48;27.50;99.90
3709;DHT22;1870;53.996;10.784;2023-05-31T15:52:14;27.40;98.30
3709;DHT22;1870;53.996;10.784;2023-05-31T15:54:40;27.10;99.00
3709;DHT22;1870;53.996;10.784;2023-05-31T15:57:05;27.00;99.50
3709;DHT22;1870;53.996;10.784;2023-05-31T15:59:31;27.00;99.50
3709;DHT22;1870;53.996;10.784;2023-05-31T16:01:57;26.90;99.80
3709;DHT22;1870;53.996;10.784;2023-05-31T16:04:24;27.00;99.90
3709;DHT22;1870;53.996;10.784;2023-05-31T16:06:49;27.20;99.80
3709;DHT22;1870;53.996;10.784;2023-05-31T16:09:15;27.30;98.90
3709;DHT22;1870;53.996;10.784;2023-05-31T16:11:41;27.20;99.10